Time;durP1;ratioP1;P1;durP2;ratioP2;P2;SDS_P1;SDS_P2;PMS_P1;PMS_P2;Temp;Humidity;BMP_temperature;BMP_pressure;BME280_temperature;BME280_humidity;BME280_pressure;Samples;Min_cycle;Max_cycle;Signal;HPM_P1;HPM_P2
2023/09/02 00:02:36;;;;;;;1999.90;999.90;;;;;;;16.87;100.00;101616.31;10462507;28;20436;-72
2023/09/02 00:07:38;;;;;;;1999.90;999.90;;;;;;;16.95;100.00;101616.63;10462937;28;20123;-72
2023/09/02 00:12:41;;;;;;;1999.90;999.90;;;;;;;16.91;100.00;101609.84;10462154;28;20488;-72
2023/09/02 00:17:43;;;;;;;1999.90;999.90;;;;;;;16.87;100.00;101601.28;10443450;28;20051;-72
2023/09/02 00:22:45;;;;;;;1999.90;999.90;;;;;;;16.89;100.00;101606.47;10462421;28;20053;-72
2023/09/02 00:27:48;;;;;;;1999.90;999.90;;;;;;;16.75;100.00;101593.38;10462148;28;20049;-72
2023/09/02 00:32:50;;;;;;;1999.90;999.90;;;;;;;16.52;100.00;101604.63;10461374;28;20128;-72
2023/09/02 00:37:53;;;;;;;1999.90;999.90;;;;;;;16.71;100.00;101616.53;10444004;28;20052;-72
2023/09/02 00:42:56;;;;;;;1999.90;999.90;;;;;;;16.74;100.00;101616.31;10443333;28;20407;-72
2023/09/02 00:47:59;;;;;;;1999.90;999.90;;;;;;;16.83;100.00;101615.66;10443269;28;20483;-72
2023/09/02 00:53:02;;;;;;;1999.90;999.90;;;;;;;16.92;100.00;101616.00;10461191;28;20049;-72
2023/09/02 00:58:05;;;;;;;1999.90;999.90;;;;;;;16.83;100.00;101626.25;10461154;28;20048;-72
2023/09/02 01:03:08;;;;;;;1999.90;999.90;;;;;;;16.93;100.00;101622.97;10460858;28;20053;-72
2023/09/02 01:08:12;;;;;;;1999.90;999.90;;;;;;;16.94;100.00;101625.50;10460593;28;20049;-72
2023/09/02 01:13:14;;;;;;;1999.90;999.90;;;;;;;16.98;100.00;101623.47;10460434;28;20056;-72
2023/09/02 01:18:17;;;;;;;1999.90;999.90;;;;;;;16.96;100.00;101613.00;10442000;28;20500;-73
2023/09/02 01:23:38;;;;;;;1999.90;999.90;;;;;;;17.02;100.00;101617.03;10460243;28;20055;-73
2023/09/02 01:28:41;;;;;;;1999.90;999.90;;;;;;;17.01;100.00;101618.84;10459486;28;20120;-72
2023/09/02 01:33:47;;;;;;;1999.90;999.90;;;;;;;17.20;100.00;101615.72;10441283;28;20075;-72
2023/09/02 01:38:52;;;;;;;1999.90;999.90;;;;;;;17.07;100.00;101620.19;10459390;28;20045;-73
2023/09/02 01:43:55;;;;;;;1999.90;999.90;;;;;;;17.02;100.00;101625.81;10441788;28;20045;-73
2023/09/02 01:48:57;;;;;;;1999.90;999.90;;;;;;;17.03;100.00;101630.16;10424509;28;20463;-72
2023/09/02 01:54:00;;;;;;;1999.90;999.90;;;;;;;17.04;100.00;101631.81;10440632;28;20410;-72
2023/09/02 01:59:02;;;;;;;1999.90;999.90;;;;;;;17.11;100.00;101639.34;10441047;28;20045;-72
2023/09/02 02:04:23;;;;;;;1999.90;999.90;;;;;;;16.98;100.00;101642.88;10458413;28;20049;-72
2023/09/02 02:09:47;;;;;;;1999.90;999.90;;;;;;;16.97;100.00;101645.63;10439977;28;20413;-73
2023/09/02 02:14:49;;;;;;;1999.90;999.90;;;;;;;17.01;100.00;101652.38;10439707;28;20053;-73
2023/09/02 02:19:52;;;;;;;1999.90;999.90;;;;;;;16.87;100.00;101642.78;10457782;28;20051;-72
2023/09/02 02:24:54;;;;;;;1999.90;999.90;;;;;;;16.94;100.00;101656.41;10457717;28;20049;-72
2023/09/02 02:29:57;;;;;;;1999.90;999.90;;;;;;;16.97;100.00;101658.84;10457264;28;20045;-72
2023/09/02 02:35:01;;;;;;;1999.90;999.90;;;;;;;16.93;100.00;101662.63;10456759;28;20049;-72
2023/09/02 02:40:05;;;;;;;1999.90;999.90;;;;;;;16.63;100.00;101655.88;10455770;28;20474;-72
2023/09/02 02:45:08;;;;;;;1999.90;999.90;;;;;;;16.62;100.00;101665.59;10457132;28;20107;-72
2023/09/02 02:50:10;;;;;;;1999.90;999.90;;;;;;;16.79;100.00;101659.13;10456370;28;20056;-72
2023/09/02 02:55:12;;;;;;;1999.90;999.90;;;;;;;16.79;100.00;101666.22;10456860;28;20049;-73
2023/09/02 03:00:15;;;;;;;1999.90;999.90;;;;;;;16.71;100.00;101658.84;10456625;28;20128;-72
2023/09/02 03:05:19;;;;;;;1999.90;999.90;;;;;;;16.85;100.00;101658.75;10438358;28;20055;-72
2023/09/02 03:10:22;;;;;;;1999.90;999.90;;;;;;;16.82;100.00;101664.22;10439267;28;20051;-72
2023/09/02 03:15:24;;;;;;;1999.90;999.90;;;;;;;16.70;100.00;101657.16;10456422;28;20128;-72
2023/09/02 03:20:26;;;;;;;1999.90;999.90;;;;;;;16.53;100.00;101663.59;10456306;28;20103;-72
2023/09/02 03:25:30;;;;;;;1999.90;999.90;;;;;;;16.57;100.00;101664.22;10456231;28;20049;-72
2023/09/02 03:30:33;;;;;;;1999.90;999.90;;;;;;;16.63;100.00;101654.09;10437680;28;20460;-72
2023/09/02 03:35:38;;;;;;;1999.90;999.90;;;;;;;16.69;100.00;101658.94;10437777;28;20053;-72
2023/09/02 03:40:41;;;;;;;1999.90;999.90;;;;;;;16.72;100.00;101655.22;10455911;28;20051;-72
2023/09/02 03:45:44;;;;;;;1999.90;999.90;;;;;;;16.52;100.00;101665.41;10455231;28;20383;-72
2023/09/02 03:51:11;;;;;;;1999.90;999.90;;;;;;;16.70;100.00;101668.56;10438245;28;20055;-72
2023/09/02 03:56:13;;;;;;;1999.90;999.90;;;;;;;16.45;100.00;101679.13;10446569;28;20076;-72
2023/09/02 04:01:16;;;;;;;1999.90;999.90;;;;;;;16.48;100.00;101685.06;10444915;28;20075;-72
2023/09/02 04:06:18;;;;;;;1999.90;999.90;;;;;;;16.61;100.00;101677.16;10462991;28;20052;-73
2023/09/02 04:11:21;;;;;;;1999.90;999.90;;;;;;;16.55;100.00;101689.94;10462768;28;20044;-72
2023/09/02 04:16:23;;;;;;;1999.90;999.90;;;;;;;16.56;100.00;101681.03;10444961;28;20059;-72
2023/09/02 04:21:26;;;;;;;1999.90;999.90;;;;;;;16.58;100.00;101682.63;10462406;28;20049;-72
2023/09/02 04:26:28;;;;;;;1999.90;999.90;;;;;;;16.69;100.00;101684.53;10462297;28;20128;-72
2023/09/02 04:31:30;;;;;;;1999.90;999.90;;;;;;;16.42;100.00;101692.56;10461878;28;20053;-72
2023/09/02 04:36:33;;;;;;;1999.90;999.90;;;;;;;16.43;100.00;101691.63;10461263;28;20049;-72
2023/09/02 04:41:37;;;;;;;1999.90;999.90;;;;;;;16.46;100.00;101704.63;10461628;28;20049;-72
2023/09/02 04:46:39;;;;;;;1999.90;999.90;;;;;;;16.49;100.00;101714.97;10461531;28;20055;-71
2023/09/02 04:51:41;;;;;;;1999.90;999.90;;;;;;;16.43;100.00;101716.25;10461282;28;20087;-71
2023/09/02 04:56:44;;;;;;;1999.90;999.90;;;;;;;16.49;100.00;101718.47;10461085;28;20052;-71
2023/09/02 05:01:46;;;;;;;1999.90;999.90;;;;;;;16.48;100.00;101722.06;10460967;28;20052;-71
2023/09/02 05:06:48;;;;;;;1999.90;999.90;;;;;;;16.41;100.00;101734.00;10459941;28;20061;-71
2023/09/02 05:11:51;;;;;;;1999.90;999.90;;;;;;;16.61;100.00;101727.38;10460529;28;20053;-71
2023/09/02 05:16:53;;;;;;;1999.90;999.90;;;;;;;16.46;100.00;101736.34;10459731;28;20071;-71
2023/09/02 05:21:57;;;;;;;1999.90;999.90;;;;;;;16.65;100.00;101741.22;10460041;28;20056;-71
2023/09/02 05:26:59;;;;;;;1999.90;999.90;;;;;;;16.47;100.00;101754.72;10459263;28;20408;-71
2023/09/02 05:32:01;;;;;;;1999.90;999.90;;;;;;;16.32;100.00;101753.97;10458817;28;20516;-71
2023/09/02 05:37:04;;;;;;;1999.90;999.90;;;;;;;16.58;100.00;101761.09;10459544;28;20052;-71
2023/09/02 05:42:06;;;;;;;1999.90;999.90;;;;;;;16.60;100.00;101760.03;10460058;28;20049;-71
2023/09/02 05:47:09;;;;;;;1999.90;999.90;;;;;;;16.37;100.00;101769.50;10465566;22;20147;-65
2023/09/02 05:52:15;;;;;;;1999.90;999.90;;;;;;;16.77;100.00;101790.63;10441227;28;20133;-66
2023/09/02 05:57:17;;;;;;;1999.90;999.90;;;;;;;16.86;100.00;101789.19;10458172;28;20409;-66
2023/09/02 06:02:19;;;;;;;1999.90;999.90;;;;;;;16.87;100.00;101781.13;10457885;28;20481;-66
2023/09/02 06:07:22;;;;;;;1999.90;999.90;;;;;;;16.95;100.00;101777.16;10458373;28;20063;-66
2023/09/02 06:12:24;;;;;;;1999.90;999.90;;;;;;;16.92;100.00;101777.34;10439897;28;20049;-66
2023/09/02 06:17:30;;;;;;;1999.90;999.90;;;;;;;17.01;100.00;101788.16;10457386;28;20049;-66
2023/09/02 06:22:33;;;;;;;1999.90;999.90;;;;;;;17.02;100.00;101792.47;10457140;28;20508;-66
2023/09/02 06:27:35;;;;;;;1999.90;999.90;;;;;;;17.12;100.00;101791.84;10457028;28;20478;-66
2023/09/02 06:32:37;;;;;;;1999.90;999.90;;;;;;;17.23;100.00;101800.72;10456895;28;20496;-65
2023/09/02 06:37:40;;;;;;;1999.90;999.90;;;;;;;17.32;100.00;101806.34;10457354;28;20063;-65
2023/09/02 06:42:42;;;;;;;1999.90;999.90;;;;;;;16.92;100.00;101822.31;10457154;28;20052;-65
2023/09/02 06:47:44;;;;;;;1999.90;999.90;;;;;;;16.96;100.00;101831.72;10456446;28;20057;-65
2023/09/02 06:52:47;;;;;;;1999.90;999.90;;;;;;;16.89;100.00;101840.09;10456975;28;20044;-65
2023/09/02 06:57:49;;;;;;;1999.90;999.90;;;;;;;17.18;100.00;101849.63;10456194;28;20405;-66
2023/09/02 07:02:51;;;;;;;1999.90;999.90;;;;;;;17.42;100.00;101847.94;10456665;28;20044;-65
2023/09/02 07:07:54;;;;;;;1999.90;999.90;;;;;;;17.44;100.00;101851.31;10456034;28;20053;-65
2023/09/02 07:12:56;;;;;;;1999.90;999.90;;;;;;;17.50;100.00;101862.41;10455953;28;20501;-65
2023/09/02 07:17:59;;;;;;;1999.90;999.90;;;;;;;17.62;100.00;101867.72;10438128;28;20502;-65
2023/09/02 07:23:03;;;;;;;1999.90;999.90;;;;;;;17.62;100.00;101888.06;10455704;28;20464;-66
2023/09/02 07:28:05;;;;;;;1999.90;999.90;;;;;;;17.74;100.00;101887.19;10460253;28;20110;-66
2023/09/02 07:33:08;;;;;;;1999.90;999.90;;;;;;;17.41;100.00;101901.81;10464466;28;20076;-66
2023/09/02 07:38:10;;;;;;;1999.90;999.90;;;;;;;17.47;100.00;101911.16;10463546;28;20106;-66
2023/09/02 07:43:13;;;;;;;1999.90;999.90;;;;;;;17.81;100.00;101916.75;10446409;28;20131;-66
2023/09/02 07:48:15;;;;;;;1999.90;999.90;;;;;;;17.86;100.00;101914.63;10463250;28;20052;-66
2023/09/02 07:53:17;;;;;;;1999.90;999.90;;;;;;;17.81;100.00;101914.94;10445326;28;20045;-66
2023/09/02 07:58:21;;;;;;;1999.90;999.90;;;;;;;17.89;100.00;101925.03;10463369;28;20045;-66
2023/09/02 08:03:24;;;;;;;1999.90;999.90;;;;;;;17.70;100.00;101938.69;10463241;28;20474;-66
2023/09/02 08:08:26;;;;;;;1999.90;999.90;;;;;;;17.78;100.00;101951.38;10463120;28;20049;-66
2023/09/02 08:13:28;;;;;;;1999.90;999.90;;;;;;;18.04;100.00;101960.19;10462257;28;20511;-66
2023/09/02 08:18:31;;;;;;;1999.90;999.90;;;;;;;18.06;100.00;101960.09;10461939;28;20041;-66
2023/09/02 08:23:34;;;;;;;1999.90;999.90;;;;;;;18.15;100.00;101960.25;10461843;28;20402;-66
2023/09/02 08:28:36;;;;;;;1999.90;999.90;;;;;;;18.00;100.00;101962.22;10462275;28;20045;-66
2023/09/02 08:33:38;;;;;;;1999.90;999.90;;;;;;;18.17;100.00;101965.44;10462057;28;20063;-66
2023/09/02 08:38:41;;;;;;;1999.90;999.90;;;;;;;18.26;100.00;101961.31;10442279;28;20404;-66
2023/09/02 08:43:43;;;;;;;1999.90;999.90;;;;;;;18.22;100.00;101958.03;10461073;28;20405;-65
2023/09/02 08:48:46;;;;;;;1999.90;999.90;;;;;;;18.32;100.00;101953.75;10443031;28;20413;-66
2023/09/02 08:53:50;;;;;;;1999.90;999.90;;;;;;;18.06;100.00;101954.78;10461260;28;20059;-66
2023/09/02 08:58:53;;;;;;;1999.90;999.90;;;;;;;18.36;100.00;101957.06;10443339;28;20077;-66
2023/09/02 09:03:57;;;;;;;1999.90;999.90;;;;;;;18.34;100.00;101932.44;10460237;28;20555;-66
2023/09/02 09:09:00;;;;;;;1999.90;999.90;;;;;;;18.79;100.00;101940.63;10426772;28;20059;-66
2023/09/02 09:14:03;;;;;;;1999.90;999.90;;;;;;;18.65;100.00;101954.09;10442836;28;20045;-66
2023/09/02 09:19:05;;;;;;;1999.90;999.90;;;;;;;18.60;100.00;101953.56;10442567;28;20052;-66
2023/09/02 09:24:14;;;;;;;1999.90;999.90;;;;;;;18.36;100.00;101963.19;10459506;28;20067;-66
2023/09/02 09:29:18;;;;;;;1999.90;999.90;;;;;;;18.64;100.00;101958.53;10442068;28;20409;-66
2023/09/02 09:34:20;;;;;;;1999.90;999.90;;;;;;;19.15;100.00;101976.03;10442021;28;20060;-66
2023/09/02 09:39:41;;;;;;;1999.90;999.90;;;;;;;19.10;100.00;101980.84;10441813;28;20045;-66
2023/09/02 09:44:57;;;;;;;1999.90;999.90;;;;;;;19.22;100.00;101973.78;10434679;28;20051;-67
2023/09/02 09:50:20;;;;;;;1999.90;999.90;;;;;;;18.98;100.00;101987.94;10440210;28;20041;-66
2023/09/02 09:55:24;;;;;;;1999.90;999.90;;;;;;;19.49;100.00;101984.09;10458083;28;20081;-66
2023/09/02 10:00:28;;;;;;;1999.90;999.90;;;;;;;19.64;100.00;101995.38;10440924;28;20045;-66
2023/09/02 10:05:32;;;;;;;1999.90;999.90;;;;;;;19.23;100.00;102004.66;10440658;28;20049;-66
2023/09/02 10:10:37;;;;;;;1999.90;999.90;;;;;;;19.43;100.00;102012.00;10440855;28;20047;-66
2023/09/02 10:15:40;;;;;;;1999.90;999.90;;;;;;;19.29;100.00;102018.31;10439630;28;20386;-65
2023/09/02 10:20:43;;;;;;;1999.90;999.90;;;;;;;19.76;100.00;102025.47;10440085;28;20045;-66
2023/09/02 10:26:08;;;;;;;1999.90;999.90;;;;;;;20.01;100.00;102027.91;10439315;28;20486;-66
2023/09/02 10:31:20;;;;;;;1999.90;999.90;;;;;;;20.35;100.00;102021.75;10440162;28;20052;-66
2023/09/02 10:36:23;;;;;;;1999.90;999.90;;;;;;;20.65;100.00;102021.13;10439538;28;20088;-66
2023/09/02 10:41:26;;;;;;;1999.90;999.90;;;;;;;20.84;100.00;102024.97;10438851;28;20478;-66
2023/09/02 10:46:29;;;;;;;1999.90;999.90;;;;;;;20.81;100.00;102023.38;10438415;28;20429;-68
2023/09/02 10:51:31;;;;;;;1999.90;999.90;;;;;;;21.22;100.00;102031.63;10439322;28;20072;-67
2023/09/02 10:56:35;;;;;;;1999.90;999.90;;;;;;;20.84;100.00;102036.44;10456466;28;20055;-72
2023/09/02 11:01:47;;;;;;;1999.90;999.90;;;;;;;21.54;100.00;102025.44;10455897;28;20049;-72
2023/09/02 11:07:19;;;;;;;1999.90;999.90;;;;;;;21.70;100.00;102029.31;10438824;28;20128;-72
2023/09/02 11:12:21;;;;;;;;;;;;;;;21.34;100.00;102031.41;10438640;28;20128;-72
2023/09/02 11:17:28;;;;;;;1999.90;999.90;;;;;;;20.78;100.00;102039.63;10455455;28;20367;-71
2023/09/02 11:22:50;;;;;;;1999.90;999.90;;;;;;;21.12;100.00;102037.69;10421806;28;20493;-71
2023/09/02 11:27:55;;;;;;;1999.90;999.90;;;;;;;20.46;100.00;102027.06;10455514;28;20398;-71
2023/09/02 11:32:58;;;;;;;1999.90;999.90;;;;;;;21.39;100.00;102027.53;10438669;28;20131;-71
2023/09/02 11:38:02;;;;;;;1999.90;999.90;;;;;;;21.25;100.00;102034.00;10438140;28;20059;-71
2023/09/02 11:43:05;;;;;;;1999.90;999.90;;;;;;;21.30;100.00;102035.31;10437410;28;20053;-71
2023/09/02 11:48:07;;;;;;;1999.90;999.90;;;;;;;21.40;100.00;102042.53;10455076;28;20136;-71
2023/09/02 11:53:11;;;;;;;1999.90;999.90;;;;;;;21.29;100.00;102046.94;10455017;28;20041;-71
2023/09/02 11:58:17;;;;;;;1999.90;999.90;;;;;;;21.68;100.00;102047.25;10437315;28;20139;-72
2023/09/02 12:03:24;;;;;;;1999.90;999.90;;;;;;;22.38;100.00;102057.31;10455457;28;20052;-72
2023/09/02 12:08:30;;;;;;;1999.90;999.90;;;;;;;21.41;100.00;102063.72;10455617;28;20056;-71
2023/09/02 12:13:33;;;;;;;1999.90;999.90;;;;;;;21.71;100.00;102064.81;10440701;28;20051;-72
2023/09/02 12:18:36;;;;;;;1999.90;999.90;;;;;;;21.49;100.00;102069.28;10444418;28;20386;-72
2023/09/02 12:23:38;;;;;;;1999.90;999.90;;;;;;;21.62;100.00;102070.91;10444124;28;20483;-72
2023/09/02 12:28:49;;;;;;;1999.90;999.90;;;;;;;21.20;100.00;102084.13;10444006;28;20138;-72
2023/09/02 12:33:52;;;;;;;1999.90;999.90;;;;;;;21.51;100.00;102090.47;10443959;28;20580;-72
2023/09/02 12:38:54;;;;;;;1999.90;999.90;;;;;;;21.56;100.00;102100.75;10461783;28;20048;-71
2023/09/02 12:44:19;;;;;;;1999.90;999.90;;;;;;;21.41;100.00;102110.84;10461669;28;20049;-71
2023/09/02 12:49:21;;;;;;;1999.90;999.90;;;;;;;21.61;100.00;102102.03;10460712;28;20140;-72
2023/09/02 12:54:29;;;;;;;1999.90;999.90;;;;;;;21.75;100.00;102106.22;10443801;28;20128;-72
2023/09/02 12:59:32;;;;;;;1999.90;999.90;;;;;;;21.30;99.94;102101.91;10460412;28;20051;-72
2023/09/02 13:04:36;;;;;;;1999.90;999.90;;;;;;;21.56;98.67;102098.91;10461048;28;20095;-72
2023/09/02 13:09:41;;;;;;;1999.90;999.90;;;;;;;22.39;93.02;102097.22;10460056;28;20049;-72
2023/09/02 13:14:44;;;;;;;1999.90;999.90;;;;;;;23.37;94.56;102076.91;10460643;28;20052;-72
2023/09/02 13:19:47;;;;;;;1999.90;999.90;;;;;;;24.25;85.64;102076.72;10442613;28;20041;-72
2023/09/02 13:24:51;;;;;;;1999.90;999.90;;;;;;;23.15;82.50;102077.19;10441899;28;20060;-72
2023/09/02 13:29:54;;;;;;;1999.90;999.90;;;;;;;24.25;82.88;102070.53;10459967;28;20055;-72
2023/09/02 13:35:21;;;;;;;1999.90;999.90;;;;;;;24.43;83.27;102068.78;10459712;28;20128;-72
2023/09/02 13:40:27;;;;;;;1999.90;999.90;;;;;;;23.37;79.85;102078.75;10441284;28;20397;-72
2023/09/02 13:45:35;;;;;;;1999.90;999.90;;;;;;;23.76;84.39;102075.19;10441384;28;20061;-72
2023/09/02 13:50:38;;;;;;;1999.90;999.90;;;;;;;23.68;77.05;102081.22;10459059;28;20049;-72
2023/09/02 13:55:47;;;;;;;1999.90;999.90;;;;;;;25.55;81.68;102082.84;10458221;28;20052;-72
2023/09/02 14:00:52;;;;;;;1999.90;999.90;;;;;;;27.11;74.36;102082.75;10458604;28;20052;-72
2023/09/02 14:05:55;;;;;;;1999.90;999.90;;;;;;;26.56;71.19;102084.94;10458448;28;20051;-72
2023/09/02 14:10:58;;;;;;;1999.90;999.90;;;;;;;25.46;73.90;102078.41;10440652;28;20052;-67
2023/09/02 14:16:00;;;;;;;1999.90;999.90;;;;;;;24.84;75.28;102073.78;10456404;28;20049;-68
2023/09/02 14:21:02;;;;;;;1999.90;999.90;;;;;;;25.77;72.55;102073.44;10457999;28;20124;-68
2023/09/02 14:26:05;;;;;;;1999.90;999.90;;;;;;;26.57;72.42;102065.13;10424009;28;20048;-68
2023/09/02 14:31:07;;;;;;;1999.90;999.90;;;;;;;26.96;71.18;102077.19;10457799;28;20053;-68
2023/09/02 14:36:10;;;;;;;1999.90;999.90;;;;;;;25.67;69.58;102073.56;10456736;28;20049;-68
2023/09/02 14:41:12;;;;;;;1999.90;999.90;;;;;;;23.96;76.75;102082.19;10455457;28;20053;-68
2023/09/02 14:46:15;;;;;;;1999.90;999.90;;;;;;;26.30;72.71;102082.31;10480099;28;20497;-71
2023/09/02 14:51:17;;;;;;;1999.90;999.90;;;;;;;26.43;72.11;102080.03;10498581;28;20052;-71
2023/09/02 14:56:20;;;;;;;1999.90;999.90;;;;;;;27.42;72.30;102069.53;10497736;28;20123;-71
2023/09/02 15:01:22;;;;;;;1999.90;999.90;;;;;;;26.86;69.24;102069.28;10479666;28;20374;-71
2023/09/02 15:06:24;;;;;;;1999.90;999.90;;;;;;;26.81;66.88;102075.13;10479859;28;20098;-73
2023/09/02 15:11:27;;;;;;;1999.90;999.90;;;;;;;27.57;64.93;102062.47;10498168;28;20045;-72
2023/09/02 15:16:31;;;;;;;1999.90;999.90;;;;;;;28.97;63.13;102063.81;10497971;28;20132;-72
2023/09/02 15:21:34;;;;;;;1999.90;999.90;;;;;;;27.63;66.58;102066.31;10497226;28;20435;-72
2023/09/02 15:26:38;;;;;;;1999.90;999.90;;;;;;;26.61;67.91;102077.25;10497180;28;20500;-72
2023/09/02 15:31:43;;;;;;;1999.90;999.90;;;;;;;26.52;64.25;102072.84;10479925;28;20040;-72
2023/09/02 15:36:48;;;;;;;1999.90;999.90;;;;;;;26.13;65.77;102071.50;10479972;28;20052;-72
2023/09/02 15:41:51;;;;;;;1999.90;999.90;;;;;;;27.48;66.09;102076.06;10480584;28;20051;-72
2023/09/02 15:46:53;;;;;;;1999.90;999.90;;;;;;;28.01;64.80;102068.44;10497320;28;20091;-72
2023/09/02 15:51:55;;;;;;;1999.90;999.90;;;;;;;27.55;64.44;102075.22;10505160;28;20045;-72
2023/09/02 15:56:58;;;;;;;1999.90;999.90;;;;;;;26.94;65.88;102073.84;10504936;28;20105;-72
2023/09/02 16:02:00;;;;;;;1999.90;999.90;;;;;;;26.84;63.83;102087.41;10504111;28;20478;-72
2023/09/02 16:07:02;;;;;;;1999.90;999.90;;;;;;;26.03;67.41;102089.56;10486892;28;20048;-72
2023/09/02 16:12:06;;;;;;;1999.90;999.90;;;;;;;26.14;67.47;102097.34;10504473;28;20048;-72
2023/09/02 16:17:21;;;;;;;1999.90;999.90;;;;;;;25.93;68.85;102100.38;10504291;28;20049;-71
2023/09/02 16:22:23;;;;;;;1999.90;999.90;;;;;;;25.52;70.18;102116.19;10486401;28;20128;-71
2023/09/02 16:27:26;;;;;;;1999.90;999.90;;;;;;;24.92;72.11;102113.22;10503928;28;20053;-71
2023/09/02 16:32:29;;;;;;;1999.90;999.90;;;;;;;24.93;72.13;102123.78;10503746;28;20048;-71
2023/09/02 16:37:43;;;;;;;1999.90;999.90;;;;;;;23.94;73.70;102124.31;10485814;28;20048;-72
2023/09/02 16:42:46;;;;;;;1999.90;999.90;;;;;;;23.85;76.92;102122.47;10486204;28;20055;-71
2023/09/02 16:47:50;;;;;;;1999.90;999.90;;;;;;;22.43;86.35;102129.81;10484608;28;20532;-71
2023/09/02 16:52:54;;;;;;;1999.90;999.90;;;;;;;22.29;89.91;102128.31;10468888;28;20106;-71
2023/09/02 16:57:56;;;;;;;1999.90;999.90;;;;;;;21.87;94.44;102128.31;10502164;28;20538;-71
2023/09/02 17:03:04;;;;;;;1999.90;999.90;;;;;;;21.61;99.04;102134.03;10483913;28;20048;-72
2023/09/02 17:08:07;;;;;;;1999.90;999.90;;;;;;;21.57;100.00;102131.72;10484134;28;20113;-71
2023/09/02 17:13:10;;;;;;;1999.90;999.90;;;;;;;21.59;99.64;102143.13;10502274;28;20087;-72
2023/09/02 17:18:12;;;;;;;1999.90;999.90;;;;;;;21.60;100.00;102151.00;10501983;28;20048;-71
2023/09/02 17:23:18;;;;;;;1999.90;999.90;;;;;;;21.42;100.00;102156.00;10501113;28;20485;-71
2023/09/02 17:28:25;;;;;;;1999.90;999.90;;;;;;;21.50;100.00;102158.91;10501583;28;20055;-71
2023/09/02 17:33:27;;;;;;;1999.90;999.90;;;;;;;21.35;100.00;102162.81;10483929;28;20052;-72
2023/09/02 17:38:30;;;;;;;1999.90;999.90;;;;;;;21.34;100.00;102169.09;10483415;28;20054;-71
2023/09/02 17:43:32;;;;;;;1999.90;999.90;;;;;;;21.37;100.00;102182.16;10500856;28;20044;-72
2023/09/02 17:48:35;;;;;;;1999.90;999.90;;;;;;;21.38;100.00;102181.19;10481961;28;20053;-70
2023/09/02 17:53:37;;;;;;;1999.90;999.90;;;;;;;21.06;100.00;102184.63;10466478;28;20052;-71
2023/09/02 17:58:39;;;;;;;1999.90;999.90;;;;;;;20.93;100.00;102184.78;10500341;28;20052;-71
2023/09/02 18:03:42;;;;;;;1999.90;999.90;;;;;;;20.68;100.00;102187.66;10437192;22;20057;-69
2023/09/02 18:08:44;;;;;;;1999.90;999.90;;;;;;;20.52;100.00;102194.16;10417302;28;20057;-70
2023/09/02 18:14:00;;;;;;;1999.90;999.90;;;;;;;20.33;100.00;102217.84;10401387;28;20049;-70
2023/09/02 18:19:02;;;;;;;1999.90;999.90;;;;;;;19.98;100.00;102230.16;10416897;28;20088;-70
2023/09/02 18:24:04;;;;;;;1999.90;999.90;;;;;;;19.89;100.00;102220.25;10415988;28;20045;-69
2023/09/02 18:29:07;;;;;;;1999.90;999.90;;;;;;;19.52;100.00;102228.22;10416540;28;20128;-69
2023/09/02 18:34:09;;;;;;;1999.90;999.90;;;;;;;19.41;100.00;102241.44;10416370;28;20079;-69
2023/09/02 18:39:11;;;;;;;1999.90;999.90;;;;;;;19.16;100.00;102255.63;10416204;28;20049;-69
2023/09/02 18:44:14;;;;;;;1999.90;999.90;;;;;;;19.01;100.00;102266.34;10415351;28;20045;-69
2023/09/02 18:49:17;;;;;;;1999.90;999.90;;;;;;;18.88;100.00;102273.50;10415922;28;20046;-69
2023/09/02 18:54:19;;;;;;;1999.90;999.90;;;;;;;18.79;100.00;102266.13;10415739;28;20111;-69
2023/09/02 18:59:22;;;;;;;1999.90;999.90;;;;;;;18.55;100.00;102266.84;10398183;28;20136;-69
2023/09/02 19:04:24;;;;;;;1999.90;999.90;;;;;;;18.42;100.00;102266.81;10414693;28;20482;-70
2023/09/02 19:09:26;;;;;;;1999.90;999.90;;;;;;;18.44;100.00;102269.38;10415484;28;20045;-69
2023/09/02 19:14:29;;;;;;;1999.90;999.90;;;;;;;18.34;100.00;102275.31;10415342;28;20052;-69
2023/09/02 19:19:31;;;;;;;1999.90;999.90;;;;;;;18.13;100.00;102280.22;10414625;28;20498;-69
2023/09/02 19:24:33;;;;;;;1999.90;999.90;;;;;;;17.95;100.00;102282.28;10402433;28;20063;-69
2023/09/02 19:29:36;;;;;;;1999.90;999.90;;;;;;;17.71;100.00;102287.34;10423394;28;20049;-69
2023/09/02 19:34:38;;;;;;;1999.90;999.90;;;;;;;17.74;100.00;102292.44;10422606;28;20528;-69
2023/09/02 19:39:41;;;;;;;1999.90;999.90;;;;;;;17.56;100.00;102289.16;10423011;28;20061;-69
2023/09/02 19:44:44;;;;;;;1999.90;999.90;;;;;;;17.57;100.00;102297.97;10405215;28;20045;-70
2023/09/02 19:49:46;;;;;;;1999.90;999.90;;;;;;;17.42;100.00;102310.38;10421968;28;20490;-69
2023/09/02 19:54:48;;;;;;;1999.90;999.90;;;;;;;17.35;100.00;102317.84;10422503;28;20053;-69
2023/09/02 19:59:51;;;;;;;1999.90;999.90;;;;;;;17.22;100.00;102309.81;10404401;28;20060;-69
2023/09/02 20:04:56;;;;;;;1999.90;999.90;;;;;;;17.19;100.00;102323.22;10403908;28;20497;-69
2023/09/02 20:09:58;;;;;;;1999.90;999.90;;;;;;;17.12;100.00;102327.19;10421317;28;20165;-70
2023/09/02 20:15:01;;;;;;;1999.90;999.90;;;;;;;17.23;100.00;102337.13;10421669;28;20050;-70
2023/09/02 20:20:03;;;;;;;1999.90;999.90;;;;;;;17.19;100.00;102340.91;10420841;28;20128;-70
2023/09/02 20:25:06;;;;;;;1999.90;999.90;;;;;;;17.04;100.00;102340.03;10421380;28;20053;-69
2023/09/02 20:30:09;;;;;;;1999.90;999.90;;;;;;;17.00;100.00;102338.53;10421137;28;20060;-69
2023/09/02 20:35:11;;;;;;;1999.90;999.90;;;;;;;16.96;100.00;102345.78;10403410;28;20049;-69
2023/09/02 20:40:14;;;;;;;1999.90;999.90;;;;;;;16.89;100.00;102357.69;10387134;28;20053;-69
2023/09/02 20:45:18;;;;;;;1999.90;999.90;;;;;;;16.79;100.00;102373.19;10403058;28;20049;-70
2023/09/02 20:50:22;;;;;;;1999.90;999.90;;;;;;;16.59;100.00;102370.88;10420353;28;20056;-70
2023/09/02 20:55:28;;;;;;;1999.90;999.90;;;;;;;16.58;100.00;102382.41;10420040;28;20050;-70
2023/09/02 21:00:30;;;;;;;1999.90;999.90;;;;;;;16.64;100.00;102382.03;10401480;28;20399;-70
2023/09/02 21:05:32;;;;;;;1999.90;999.90;;;;;;;16.56;100.00;102390.44;10401680;28;20562;-70
2023/09/02 21:10:35;;;;;;;1999.90;999.90;;;;;;;16.49;100.00;102384.63;10419583;28;20125;-70
2023/09/02 21:15:41;;;;;;;1999.90;999.90;;;;;;;16.40;100.00;102400.16;10401709;28;20092;-69
2023/09/02 21:20:43;;;;;;;1999.90;999.90;;;;;;;16.44;100.00;102409.63;10419129;28;20155;-70
2023/09/02 21:25:46;;;;;;;1999.90;999.90;;;;;;;16.60;100.00;102401.66;10418943;28;20128;-69
2023/09/02 21:30:48;;;;;;;1999.90;999.90;;;;;;;16.36;100.00;102412.69;10418758;28;20053;-69
2023/09/02 21:35:50;;;;;;;1999.90;999.90;;;;;;;16.31;100.00;102417.41;10418607;28;20081;-69
2023/09/02 21:41:04;;;;;;;1999.90;999.90;;;;;;;16.25;100.00;102423.84;10417632;28;20053;-69
2023/09/02 21:46:09;;;;;;;1999.90;999.90;;;;;;;16.19;100.00;102426.00;10400233;28;20125;-69
2023/09/02 21:51:12;;;;;;;1999.90;999.90;;;;;;;16.24;100.00;102430.09;10400662;28;20049;-69